createdAt,value
2018-07-14T00:03:56.224Z,21.70
2018-07-14T00:07:58.494Z,21.70
2018-07-14T00:12:00.752Z,21.60
2018-07-14T00:16:02.995Z,21.60
2018-07-14T00:20:05.909Z,21.50
2018-07-14T00:24:08.162Z,21.50
2018-07-14T00:28:10.447Z,21.40
2018-07-14T00:32:12.712Z,21.40
2018-07-14T00:36:14.921Z,21.30
2018-07-14T00:40:17.242Z,21.40
2018-07-14T00:44:19.523Z,21.30
2018-07-14T00:48:21.863Z,21.20
2018-07-14T00:52:24.087Z,21.10
2018-07-14T00:56:26.393Z,21.00
2018-07-14T01:00:28.681Z,21.10
2018-07-14T01:04:31.067Z,21.10
2018-07-14T01:08:33.387Z,21.00
2018-07-14T01:12:35.627Z,20.70
2018-07-14T01:16:37.931Z,20.60
2018-07-14T01:20:40.135Z,20.80
2018-07-14T01:24:42.400Z,20.60
2018-07-14T01:28:44.582Z,20.30
2018-07-14T01:32:46.826Z,20.70
2018-07-14T01:36:49.093Z,20.90
2018-07-14T01:40:51.288Z,20.60
2018-07-14T01:44:53.617Z,20.70
2018-07-14T01:48:55.809Z,20.70
2018-07-14T01:52:58.380Z,20.70
2018-07-14T01:57:00.580Z,20.20
2018-07-14T02:01:02.850Z,20.60
2018-07-14T02:05:04.992Z,20.40
2018-07-14T02:09:07.197Z,20.30
2018-07-14T02:13:09.335Z,20.60
2018-07-14T02:17:11.467Z,21.00
2018-07-14T02:21:13.670Z,21.30
2018-07-14T02:25:15.817Z,21.40
2018-07-14T02:29:18.033Z,21.20
2018-07-14T02:33:20.228Z,21.00
2018-07-14T02:37:22.375Z,21.00
2018-07-14T02:41:25.158Z,20.80
2018-07-14T02:45:27.339Z,21.10
2018-07-14T02:49:30.697Z,21.30
2018-07-14T02:53:32.851Z,21.20
2018-07-14T02:57:35.046Z,21.00
2018-07-14T03:01:37.420Z,20.70
2018-07-14T03:05:39.589Z,21.10
2018-07-14T03:09:41.729Z,21.30
2018-07-14T03:13:44.170Z,21.40
2018-07-14T03:17:46.351Z,21.50
2018-07-14T03:21:48.492Z,21.60
2018-07-14T03:25:50.650Z,21.60
2018-07-14T03:29:52.874Z,21.60
2018-07-14T03:33:55.067Z,20.00
2018-07-14T03:37:57.279Z,20.00
2018-07-14T03:41:59.819Z,20.90
2018-07-14T03:46:02.401Z,21.30
2018-07-14T03:50:04.948Z,21.20
2018-07-14T03:54:07.165Z,21.70
2018-07-14T03:58:09.395Z,21.80
2018-07-14T04:02:11.726Z,22.00
2018-07-14T04:06:13.939Z,21.40
2018-07-14T04:10:16.098Z,21.30
2018-07-14T04:14:18.228Z,21.70
2018-07-14T04:18:20.383Z,21.60
2018-07-14T04:22:22.577Z,22.00
2018-07-14T04:26:24.842Z,22.20
2018-07-14T04:30:27.481Z,22.70
2018-07-14T04:34:30.230Z,23.00
2018-07-14T04:38:32.626Z,23.20
2018-07-14T04:42:34.875Z,23.20
2018-07-14T04:46:37.166Z,23.00
2018-07-14T04:50:39.361Z,23.10
2018-07-14T04:54:41.610Z,23.30
2018-07-14T04:58:44.003Z,23.80
2018-07-14T05:02:46.967Z,23.90
2018-07-14T05:06:49.142Z,24.30
2018-07-14T05:10:51.369Z,24.80
2018-07-14T05:14:53.645Z,24.80
2018-07-14T05:18:55.952Z,24.50
2018-07-14T05:22:58.156Z,25.10
2018-07-14T05:27:00.416Z,25.10
2018-07-14T05:31:02.636Z,24.50
2018-07-14T05:35:05.140Z,25.30
2018-07-14T05:39:07.404Z,26.10
2018-07-14T05:43:09.664Z,26.60
2018-07-14T05:47:11.815Z,26.20
2018-07-14T05:51:13.988Z,23.80
2018-07-14T05:55:16.143Z,22.30
2018-07-14T05:59:18.301Z,22.60
2018-07-14T06:03:20.511Z,24.00
2018-07-14T06:07:22.675Z,24.60
2018-07-14T06:11:24.825Z,25.10
2018-07-14T06:15:27.032Z,24.20
2018-07-14T06:19:29.258Z,24.00
2018-07-14T06:23:31.369Z,23.50
2018-07-14T06:27:33.944Z,23.60
2018-07-14T06:31:36.118Z,23.80
2018-07-14T06:35:38.276Z,23.40
2018-07-14T06:39:40.451Z,23.70
2018-07-14T06:43:42.699Z,23.20
2018-07-14T06:47:44.858Z,24.20
2018-07-14T06:51:47.040Z,23.50
2018-07-14T06:55:49.495Z,23.20
2018-07-14T06:59:51.640Z,23.90
2018-07-14T07:03:54.292Z,24.40
2018-07-14T07:07:56.534Z,25.80
2018-07-14T07:11:58.752Z,26.80
2018-07-14T07:16:00.882Z,28.60
2018-07-14T07:20:03.219Z,28.00
2018-07-14T07:24:05.534Z,29.50
2018-07-14T07:28:07.732Z,30.20
2018-07-14T07:32:09.911Z,27.50
2018-07-14T07:36:12.130Z,27.50
2018-07-14T07:40:14.272Z,29.60
2018-07-14T07:44:16.430Z,29.30
2018-07-14T07:48:18.603Z,28.30
2018-07-14T07:52:20.740Z,30.20
2018-07-14T07:56:22.900Z,27.90
2018-07-14T08:00:25.044Z,28.60
2018-07-14T08:04:27.214Z,30.50
2018-07-14T08:08:29.490Z,31.00
2018-07-14T08:12:31.663Z,31.40
2018-07-14T08:16:33.811Z,31.00
2018-07-14T08:20:35.968Z,32.30
2018-07-14T08:24:38.208Z,30.70
2018-07-14T08:28:40.359Z,31.70
2018-07-14T08:32:42.551Z,29.20
2018-07-14T08:36:44.783Z,28.30
2018-07-14T08:40:46.956Z,29.50
2018-07-14T08:44:49.120Z,31.30
2018-07-14T08:48:51.254Z,30.60
2018-07-14T08:52:53.443Z,31.40
2018-07-14T08:56:55.671Z,31.80
2018-07-14T09:00:59.118Z,29.00
2018-07-14T09:05:01.280Z,28.60
2018-07-14T09:09:04.172Z,28.50
2018-07-14T09:13:06.348Z,29.90
2018-07-14T09:17:08.499Z,31.40
2018-07-14T09:21:10.799Z,31.90
2018-07-14T09:25:13.052Z,29.60
2018-07-14T09:29:15.529Z,30.20
2018-07-14T09:33:17.839Z,29.40
2018-07-14T09:37:20.111Z,29.80
2018-07-14T09:41:22.233Z,29.30
2018-07-14T09:45:24.461Z,28.80
2018-07-14T09:49:27.529Z,27.20
2018-07-14T09:53:29.688Z,29.70
2018-07-14T09:57:31.843Z,26.80
2018-07-14T10:01:34.005Z,28.80
2018-07-14T10:05:36.201Z,30.60
2018-07-14T10:09:38.367Z,29.30
2018-07-14T10:13:40.528Z,28.50
2018-07-14T10:17:42.762Z,30.70
2018-07-14T10:21:44.887Z,30.90
2018-07-14T10:25:47.256Z,31.00
2018-07-14T10:29:49.245Z,30.30
2018-07-14T10:33:51.494Z,29.20
2018-07-14T10:37:53.676Z,28.20
2018-07-14T10:41:55.865Z,28.40
2018-07-14T10:45:58.020Z,31.30
2018-07-14T10:50:00.177Z,33.10
2018-07-14T10:54:02.340Z,32.80
2018-07-14T10:58:04.579Z,30.90
2018-07-14T11:02:06.857Z,30.50
2018-07-14T11:06:09.391Z,29.10
2018-07-14T11:10:11.571Z,27.80
2018-07-14T11:14:13.764Z,27.60
2018-07-14T11:18:16.011Z,29.40
2018-07-14T11:22:18.231Z,31.40
2018-07-14T11:26:20.577Z,32.70
2018-07-14T11:30:22.842Z,31.20
2018-07-14T11:34:25.019Z,27.60
2018-07-14T11:38:27.162Z,30.00
2018-07-14T11:42:29.499Z,29.70
2018-07-14T11:46:31.655Z,31.70
2018-07-14T11:50:33.916Z,32.40
2018-07-14T11:54:36.110Z,32.40
2018-07-14T11:58:38.314Z,33.80
2018-07-14T12:02:40.618Z,34.90
2018-07-14T12:06:43.160Z,35.90
2018-07-14T12:10:45.437Z,33.70
2018-07-14T12:14:53.161Z,32.80
2018-07-14T12:18:57.704Z,30.30
2018-07-14T12:23:01.071Z,32.00
2018-07-14T12:27:03.894Z,32.10
2018-07-14T12:31:07.651Z,33.10
2018-07-14T12:35:12.159Z,34.60
2018-07-14T12:39:15.846Z,33.40
2018-07-14T12:43:18.291Z,32.50
2018-07-14T12:47:22.064Z,33.60
2018-07-14T12:51:24.327Z,34.50
2018-07-14T12:55:28.851Z,34.80
2018-07-14T12:59:32.826Z,35.30
2018-07-14T13:03:35.574Z,36.10
2018-07-14T13:07:37.953Z,37.60
2018-07-14T13:11:43.282Z,35.00
2018-07-14T13:15:46.145Z,36.60
2018-07-14T13:19:48.615Z,37.80
2018-07-14T13:23:51.194Z,39.20
2018-07-14T13:27:55.774Z,38.10
2018-07-14T13:31:58.447Z,38.10
2018-07-14T13:36:01.936Z,35.60
2018-07-14T13:40:05.889Z,35.80
2018-07-14T13:44:08.321Z,33.90
2018-07-14T13:48:10.658Z,36.10
2018-07-14T13:52:14.275Z,37.70
2018-07-14T13:56:16.460Z,35.50
2018-07-14T14:00:18.692Z,38.30
2018-07-14T14:04:20.872Z,38.70
2018-07-14T14:08:23.045Z,40.30
2018-07-14T14:12:25.249Z,40.50
2018-07-14T14:16:27.764Z,39.00
2018-07-14T14:20:30.238Z,38.30
2018-07-14T14:24:32.459Z,35.40
2018-07-14T14:28:34.755Z,34.40
2018-07-14T14:32:37.002Z,35.70
2018-07-14T14:36:39.231Z,36.60
2018-07-14T14:40:41.421Z,38.80
2018-07-14T14:44:43.598Z,38.20
2018-07-14T14:48:45.875Z,37.10
2018-07-14T14:52:48.031Z,36.30
2018-07-14T14:56:50.238Z,35.90
2018-07-14T15:00:52.483Z,33.60
2018-07-14T15:04:54.640Z,30.90
2018-07-14T15:08:56.819Z,32.70
2018-07-14T15:12:59.671Z,33.10
2018-07-14T15:17:01.988Z,33.60
2018-07-14T15:21:04.258Z,33.80
2018-07-14T15:25:07.283Z,35.00
2018-07-14T15:29:09.506Z,35.30
2018-07-14T15:33:11.819Z,35.90
2018-07-14T15:37:13.898Z,35.90
2018-07-14T15:41:16.671Z,36.60
2018-07-14T15:45:18.872Z,36.90
2018-07-14T15:49:21.256Z,36.40
2018-07-14T15:53:23.445Z,35.80
2018-07-14T15:57:25.612Z,36.10
2018-07-14T16:01:27.795Z,36.70
2018-07-14T16:05:30.698Z,36.40
2018-07-14T16:09:32.863Z,35.60
2018-07-14T16:13:35.068Z,34.60
2018-07-14T16:17:37.324Z,31.60
2018-07-14T16:21:39.543Z,32.70
2018-07-14T16:25:41.770Z,32.20
2018-07-14T16:29:43.995Z,33.00
2018-07-14T16:33:46.196Z,32.40
2018-07-14T16:37:48.472Z,31.00
2018-07-14T16:41:50.719Z,31.10
2018-07-14T16:45:52.916Z,31.40
2018-07-14T16:49:55.484Z,32.10
2018-07-14T16:53:57.630Z,30.90
2018-07-14T16:58:01.698Z,29.50
2018-07-14T17:02:04.280Z,29.60
2018-07-14T17:06:07.903Z,28.80
2018-07-14T17:10:10.155Z,30.10
2018-07-14T17:14:12.443Z,31.00
2018-07-14T17:18:14.498Z,31.50
2018-07-14T17:22:16.768Z,30.50
2018-07-14T17:26:19.092Z,31.00
2018-07-14T17:30:21.347Z,31.00
2018-07-14T17:34:23.517Z,32.30
2018-07-14T17:38:25.776Z,32.40
2018-07-14T17:42:27.963Z,32.20
2018-07-14T17:46:30.115Z,31.90
2018-07-14T17:50:32.358Z,30.80
2018-07-14T17:54:34.765Z,31.40
2018-07-14T17:58:36.945Z,31.10
2018-07-14T18:02:39.148Z,31.70
2018-07-14T18:06:41.317Z,32.20
2018-07-14T18:10:43.510Z,32.00
2018-07-14T18:14:45.701Z,31.70
2018-07-14T18:18:47.815Z,31.10
2018-07-14T18:22:50.062Z,31.30
2018-07-14T18:26:52.239Z,30.70
2018-07-14T18:30:54.455Z,30.60
2018-07-14T18:34:56.623Z,29.80
2018-07-14T18:38:58.830Z,29.00
2018-07-14T18:43:01.044Z,28.60
2018-07-14T18:47:03.280Z,27.80
2018-07-14T18:51:05.498Z,27.90
2018-07-14T18:55:07.717Z,27.10
2018-07-14T18:59:09.910Z,27.70
2018-07-14T19:03:12.166Z,27.60
2018-07-14T19:07:14.378Z,27.70
2018-07-14T19:11:16.577Z,27.50
2018-07-14T19:15:18.827Z,27.70
2018-07-14T19:19:21.027Z,26.10
2018-07-14T19:23:23.229Z,25.20
2018-07-14T19:27:25.395Z,25.40
2018-07-14T19:31:27.959Z,25.50
2018-07-14T19:35:30.265Z,25.20
2018-07-14T19:39:32.875Z,24.90
2018-07-14T19:43:35.183Z,24.30
2018-07-14T19:47:37.368Z,24.80
2018-07-14T19:51:39.598Z,24.40
2018-07-14T19:55:41.871Z,24.00
2018-07-14T19:59:44.238Z,23.80
2018-07-14T20:03:46.403Z,24.20
2018-07-14T20:07:49.108Z,23.50
2018-07-14T20:11:51.257Z,23.10
2018-07-14T20:15:53.739Z,23.20
2018-07-14T20:19:55.982Z,23.50
2018-07-14T20:23:58.366Z,22.90
2018-07-14T20:28:00.599Z,23.00
2018-07-14T20:32:02.816Z,22.60
2018-07-14T20:36:04.985Z,23.30
2018-07-14T20:40:07.214Z,23.40
2018-07-14T20:44:09.387Z,23.30
2018-07-14T20:48:11.594Z,23.20
2018-07-14T20:52:13.819Z,23.60
2018-07-14T20:56:16.007Z,23.60
2018-07-14T21:00:18.243Z,24.20
2018-07-14T21:04:20.490Z,24.90
2018-07-14T21:08:22.703Z,25.90
2018-07-14T21:12:25.387Z,26.10
2018-07-14T21:16:27.545Z,26.20
2018-07-14T21:20:29.695Z,25.10
2018-07-14T21:24:31.878Z,24.60
2018-07-14T21:28:34.128Z,23.80
2018-07-14T21:32:36.317Z,23.80
2018-07-14T21:36:38.508Z,23.70
2018-07-14T21:40:40.730Z,24.30
2018-07-14T21:44:42.925Z,24.30
2018-07-14T21:48:45.336Z,24.90
2018-07-14T21:52:47.811Z,25.40
2018-07-14T21:56:50.189Z,25.60
2018-07-14T22:01:03.353Z,25.60
2018-07-14T22:05:05.594Z,25.70
2018-07-14T22:09:07.793Z,25.90
2018-07-14T22:13:10.085Z,25.90
2018-07-14T22:17:12.403Z,25.90
2018-07-14T22:21:14.599Z,25.60
2018-07-14T22:25:16.777Z,25.40
2018-07-14T22:29:19.088Z,24.80
2018-07-14T22:33:21.233Z,24.70
2018-07-14T22:37:23.379Z,24.70
2018-07-14T22:41:25.682Z,24.60
2018-07-14T22:45:27.920Z,24.60
2018-07-14T22:49:30.106Z,24.50
2018-07-14T22:53:32.271Z,24.40
2018-07-14T22:57:34.411Z,23.80
2018-07-14T23:01:36.709Z,23.50
2018-07-14T23:05:38.889Z,23.30
2018-07-14T23:09:41.116Z,23.60
2018-07-14T23:13:43.322Z,24.30
2018-07-14T23:17:45.499Z,24.70
2018-07-14T23:21:47.722Z,24.70
2018-07-14T23:25:49.879Z,24.60
2018-07-14T23:29:52.076Z,24.40
2018-07-14T23:33:54.258Z,24.20
2018-07-14T23:37:56.525Z,24.30
2018-07-14T23:41:58.707Z,24.40
2018-07-14T23:46:01.482Z,24.30
2018-07-14T23:50:03.781Z,24.10
2018-07-14T23:54:05.984Z,24.00
2018-07-14T23:58:08.146Z,24.10
